sensor_id;sensor_type;location;lat;lon;timestamp;P1;P2;P0
72307;PMS5003;60257;42.638;23.376;2022-12-07T00:01:11;70.00;57.50;35.50
72307;PMS5003;60257;42.638;23.376;2022-12-07T00:03:39;79.50;62.00;40.00
72307;PMS5003;60257;42.638;23.376;2022-12-07T00:06:07;83.00;66.75;41.00
72307;PMS5003;60257;42.638;23.376;2022-12-07T00:08:33;74.00;60.00;38.00
72307;PMS5003;60257;42.638;23.376;2022-12-07T00:13:32;76.00;60.50;40.25
72307;PMS5003;60257;42.638;23.376;2022-12-07T00:16:00;81.50;64.00;40.00
72307;PMS5003;60257;42.638;23.376;2022-12-07T00:18:27;80.00;65.00;39.25
72307;PMS5003;60257;42.638;23.376;2022-12-07T00:20:52;81.00;63.00;39.00
72307;PMS5003;60257;42.638;23.376;2022-12-07T00:23:17;80.50;63.25;39.25
72307;PMS5003;60257;42.638;23.376;2022-12-07T00:25:43;73.25;61.00;38.00
72307;PMS5003;60257;42.638;23.376;2022-12-07T00:28:08;71.75;59.00;38.75
72307;PMS5003;60257;42.638;23.376;2022-12-07T00:30:35;81.25;62.75;38.00
72307;PMS5003;60257;42.638;23.376;2022-12-07T00:33:01;73.00;57.50;35.50
72307;PMS5003;60257;42.638;23.376;2022-12-07T00:35:26;72.75;58.00;37.00
72307;PMS5003;60257;42.638;23.376;2022-12-07T00:37:52;74.75;60.50;38.00
72307;PMS5003;60257;42.638;23.376;2022-12-07T00:40:17;78.75;60.75;36.75
72307;PMS5003;60257;42.638;23.376;2022-12-07T00:42:42;73.25;58.50;39.25
72307;PMS5003;60257;42.638;23.376;2022-12-07T00:45:09;78.75;59.75;36.50
72307;PMS5003;60257;42.638;23.376;2022-12-07T00:47:34;78.00;62.50;37.50
72307;PMS5003;60257;42.638;23.376;2022-12-07T00:50:00;78.75;63.00;38.00
72307;PMS5003;60257;42.638;23.376;2022-12-07T00:52:25;77.50;60.50;36.00
72307;PMS5003;60257;42.638;23.376;2022-12-07T00:54:51;75.25;59.75;36.00
72307;PMS5003;60257;42.638;23.376;2022-12-07T00:57:16;79.75;62.25;37.00
72307;PMS5003;60257;42.638;23.376;2022-12-07T00:59:42;72.25;57.75;36.00
72307;PMS5003;60257;42.638;23.376;2022-12-07T01:02:07;72.75;60.00;37.25
72307;PMS5003;60257;42.638;23.376;2022-12-07T01:04:34;65.25;53.50;30.75
72307;PMS5003;60257;42.638;23.376;2022-12-07T01:06:59;62.00;48.25;29.00
72307;PMS5003;60257;42.638;23.376;2022-12-07T01:09:25;68.25;55.00;34.00
72307;PMS5003;60257;42.638;23.376;2022-12-07T01:11:50;75.75;60.75;37.00
72307;PMS5003;60257;42.638;23.376;2022-12-07T01:14:16;72.00;57.00;36.75
72307;PMS5003;60257;42.638;23.376;2022-12-07T01:16:41;78.75;59.50;36.00
72307;PMS5003;60257;42.638;23.376;2022-12-07T01:19:07;77.25;60.25;38.00
72307;PMS5003;60257;42.638;23.376;2022-12-07T01:21:33;82.00;63.00;37.50
72307;PMS5003;60257;42.638;23.376;2022-12-07T01:24:01;74.00;58.75;37.00
72307;PMS5003;60257;42.638;23.376;2022-12-07T01:26:27;80.25;62.75;39.75
72307;PMS5003;60257;42.638;23.376;2022-12-07T01:28:53;82.00;64.50;40.75
72307;PMS5003;60257;42.638;23.376;2022-12-07T01:31:20;85.75;68.75;42.25
72307;PMS5003;60257;42.638;23.376;2022-12-07T01:33:48;87.75;67.00;43.50
72307;PMS5003;60257;42.638;23.376;2022-12-07T01:36:29;82.25;62.25;40.00
72307;PMS5003;60257;42.638;23.376;2022-12-07T01:38:57;90.00;67.25;41.00
72307;PMS5003;60257;42.638;23.376;2022-12-07T01:41:25;87.75;69.00;43.75
72307;PMS5003;60257;42.638;23.376;2022-12-07T01:46:43;81.25;65.50;43.50
72307;PMS5003;60257;42.638;23.376;2022-12-07T01:52:13;91.00;68.50;44.00
72307;PMS5003;60257;42.638;23.376;2022-12-07T01:54:43;87.75;67.75;39.75
72307;PMS5003;60257;42.638;23.376;2022-12-07T01:57:11;87.00;68.50;41.75
72307;PMS5003;60257;42.638;23.376;2022-12-07T01:59:38;87.50;70.00;44.00
72307;PMS5003;60257;42.638;23.376;2022-12-07T02:02:05;82.75;65.50;40.00
72307;PMS5003;60257;42.638;23.376;2022-12-07T02:04:37;83.00;65.50;39.50
72307;PMS5003;60257;42.638;23.376;2022-12-07T02:07:03;85.75;67.00;42.75
72307;PMS5003;60257;42.638;23.376;2022-12-07T02:09:30;85.75;67.00;41.00
72307;PMS5003;60257;42.638;23.376;2022-12-07T02:11:55;86.25;66.50;42.25
72307;PMS5003;60257;42.638;23.376;2022-12-07T02:14:21;86.25;69.25;42.75
72307;PMS5003;60257;42.638;23.376;2022-12-07T02:16:51;86.75;67.75;41.00
72307;PMS5003;60257;42.638;23.376;2022-12-07T02:19:58;82.75;65.25;42.00
72307;PMS5003;60257;42.638;23.376;2022-12-07T02:22:41;80.25;62.25;39.75
72307;PMS5003;60257;42.638;23.376;2022-12-07T02:28:13;82.00;64.75;41.25
72307;PMS5003;60257;42.638;23.376;2022-12-07T02:30:51;88.75;70.00;43.75
72307;PMS5003;60257;42.638;23.376;2022-12-07T02:33:33;88.00;68.50;43.25
72307;PMS5003;60257;42.638;23.376;2022-12-07T02:38:36;91.50;72.25;46.00
72307;PMS5003;60257;42.638;23.376;2022-12-07T02:41:18;86.50;66.50;42.50
72307;PMS5003;60257;42.638;23.376;2022-12-07T02:43:50;86.75;65.50;42.00
72307;PMS5003;60257;42.638;23.376;2022-12-07T02:46:23;80.75;62.25;40.00
72307;PMS5003;60257;42.638;23.376;2022-12-07T02:48:52;83.75;66.25;41.75
72307;PMS5003;60257;42.638;23.376;2022-12-07T02:51:20;88.00;66.00;41.50
72307;PMS5003;60257;42.638;23.376;2022-12-07T02:53:46;87.00;66.75;43.50
72307;PMS5003;60257;42.638;23.376;2022-12-07T03:06:41;86.75;68.75;42.25
72307;PMS5003;60257;42.638;23.376;2022-12-07T03:09:14;83.50;66.25;41.25
72307;PMS5003;60257;42.638;23.376;2022-12-07T03:11:53;87.75;68.25;43.00
72307;PMS5003;60257;42.638;23.376;2022-12-07T03:14:52;84.75;64.50;40.25
72307;PMS5003;60257;42.638;23.376;2022-12-07T03:17:27;86.00;66.25;41.50
72307;PMS5003;60257;42.638;23.376;2022-12-07T03:19:58;82.75;65.75;40.25
72307;PMS5003;60257;42.638;23.376;2022-12-07T03:22:28;85.50;67.00;39.00
72307;PMS5003;60257;42.638;23.376;2022-12-07T03:25:01;78.50;63.50;41.00
72307;PMS5003;60257;42.638;23.376;2022-12-07T03:27:32;81.50;63.25;39.00
72307;PMS5003;60257;42.638;23.376;2022-12-07T03:30:02;80.25;63.75;39.50
72307;PMS5003;60257;42.638;23.376;2022-12-07T03:32:53;90.75;68.75;43.75
72307;PMS5003;60257;42.638;23.376;2022-12-07T03:35:25;78.50;64.75;44.00
72307;PMS5003;60257;42.638;23.376;2022-12-07T03:37:57;83.25;64.00;40.25
72307;PMS5003;60257;42.638;23.376;2022-12-07T03:43:15;76.75;60.00;37.25
72307;PMS5003;60257;42.638;23.376;2022-12-07T03:45:43;66.25;55.75;37.00
72307;PMS5003;60257;42.638;23.376;2022-12-07T03:48:20;82.50;66.00;40.25
72307;PMS5003;60257;42.638;23.376;2022-12-07T03:50:55;87.75;67.75;41.25
72307;PMS5003;60257;42.638;23.376;2022-12-07T03:53:33;79.75;62.25;39.50
72307;PMS5003;60257;42.638;23.376;2022-12-07T03:56:04;75.50;61.25;40.50
72307;PMS5003;60257;42.638;23.376;2022-12-07T03:58:31;87.75;63.50;40.50
72307;PMS5003;60257;42.638;23.376;2022-12-07T04:00:59;84.75;65.25;41.00
72307;PMS5003;60257;42.638;23.376;2022-12-07T04:03:24;58.00;46.75;29.25
72307;PMS5003;60257;42.638;23.376;2022-12-07T04:05:50;80.50;65.00;40.50
72307;PMS5003;60257;42.638;23.376;2022-12-07T04:08:16;86.00;67.00;41.00
72307;PMS5003;60257;42.638;23.376;2022-12-07T04:10:41;60.50;47.50;35.00
72307;PMS5003;60257;42.638;23.376;2022-12-07T04:13:07;80.25;64.50;39.25
72307;PMS5003;60257;42.638;23.376;2022-12-07T04:15:32;81.50;61.75;38.50
72307;PMS5003;60257;42.638;23.376;2022-12-07T04:17:58;89.50;69.25;42.75
72307;PMS5003;60257;42.638;23.376;2022-12-07T04:20:23;79.50;60.25;38.75
72307;PMS5003;60257;42.638;23.376;2022-12-07T04:22:49;78.00;58.50;39.50
72307;PMS5003;60257;42.638;23.376;2022-12-07T04:25:14;80.75;62.00;38.50
72307;PMS5003;60257;42.638;23.376;2022-12-07T04:27:40;78.50;64.25;40.50
72307;PMS5003;60257;42.638;23.376;2022-12-07T04:30:05;84.00;64.75;40.75
72307;PMS5003;60257;42.638;23.376;2022-12-07T04:32:31;79.50;61.75;37.25
72307;PMS5003;60257;42.638;23.376;2022-12-07T04:34:57;79.50;62.25;39.75
72307;PMS5003;60257;42.638;23.376;2022-12-07T04:37:22;76.00;62.75;39.25
72307;PMS5003;60257;42.638;23.376;2022-12-07T04:39:48;80.75;62.25;35.75
72307;PMS5003;60257;42.638;23.376;2022-12-07T04:42:14;80.50;64.25;40.25
72307;PMS5003;60257;42.638;23.376;2022-12-07T04:44:39;83.50;67.00;43.00
72307;PMS5003;60257;42.638;23.376;2022-12-07T04:47:05;84.75;68.50;43.00
72307;PMS5003;60257;42.638;23.376;2022-12-07T04:49:31;78.00;63.25;37.50
72307;PMS5003;60257;42.638;23.376;2022-12-07T04:51:56;82.50;64.50;40.75
72307;PMS5003;60257;42.638;23.376;2022-12-07T04:54:22;74.50;58.50;38.50
72307;PMS5003;60257;42.638;23.376;2022-12-07T04:56:47;85.00;65.25;41.75
72307;PMS5003;60257;42.638;23.376;2022-12-07T04:59:14;80.75;65.50;41.00
72307;PMS5003;60257;42.638;23.376;2022-12-07T05:01:40;78.25;60.50;40.75
72307;PMS5003;60257;42.638;23.376;2022-12-07T05:04:06;78.00;62.00;39.00
72307;PMS5003;60257;42.638;23.376;2022-12-07T05:06:32;78.75;60.25;38.25
72307;PMS5003;60257;42.638;23.376;2022-12-07T05:08:58;81.25;63.25;39.00
72307;PMS5003;60257;42.638;23.376;2022-12-07T05:11:23;78.25;62.25;39.00
72307;PMS5003;60257;42.638;23.376;2022-12-07T05:14:05;75.50;61.25;38.00
72307;PMS5003;60257;42.638;23.376;2022-12-07T05:16:33;77.75;62.50;39.00
72307;PMS5003;60257;42.638;23.376;2022-12-07T05:18:59;81.25;63.00;40.50
72307;PMS5003;60257;42.638;23.376;2022-12-07T05:21:24;78.75;61.25;38.00
72307;PMS5003;60257;42.638;23.376;2022-12-07T05:23:50;82.00;65.00;40.25
72307;PMS5003;60257;42.638;23.376;2022-12-07T05:26:16;83.50;65.75;38.25
72307;PMS5003;60257;42.638;23.376;2022-12-07T05:28:41;84.75;65.75;40.75
72307;PMS5003;60257;42.638;23.376;2022-12-07T05:31:07;77.50;64.75;41.00
72307;PMS5003;60257;42.638;23.376;2022-12-07T05:33:32;50.00;42.50;8.00
72307;PMS5003;60257;42.638;23.376;2022-12-07T05:35:58;87.00;69.00;45.00
72307;PMS5003;60257;42.638;23.376;2022-12-07T05:38:23;77.75;63.00;38.75
72307;PMS5003;60257;42.638;23.376;2022-12-07T05:40:50;79.00;61.75;37.00
72307;PMS5003;60257;42.638;23.376;2022-12-07T05:43:15;75.50;60.75;37.25
72307;PMS5003;60257;42.638;23.376;2022-12-07T05:45:41;74.25;60.00;37.25
72307;PMS5003;60257;42.638;23.376;2022-12-07T05:48:06;77.75;61.25;37.75
72307;PMS5003;60257;42.638;23.376;2022-12-07T05:50:32;75.75;60.50;36.25
72307;PMS5003;60257;42.638;23.376;2022-12-07T05:52:57;77.50;61.50;38.50
72307;PMS5003;60257;42.638;23.376;2022-12-07T05:55:23;78.00;64.00;39.25
72307;PMS5003;60257;42.638;23.376;2022-12-07T05:57:48;79.50;64.00;39.25
72307;PMS5003;60257;42.638;23.376;2022-12-07T06:00:46;75.75;60.25;37.75
72307;PMS5003;60257;42.638;23.376;2022-12-07T06:03:12;79.50;63.25;38.25
72307;PMS5003;60257;42.638;23.376;2022-12-07T06:05:37;73.75;58.25;35.50
72307;PMS5003;60257;42.638;23.376;2022-12-07T06:08:03;78.00;59.25;38.00
72307;PMS5003;60257;42.638;23.376;2022-12-07T06:10:28;77.25;60.00;38.25
72307;PMS5003;60257;42.638;23.376;2022-12-07T06:12:54;78.25;63.75;38.25
72307;PMS5003;60257;42.638;23.376;2022-12-07T06:15:19;76.25;62.25;38.75
72307;PMS5003;60257;42.638;23.376;2022-12-07T06:17:44;72.00;58.50;37.00
72307;PMS5003;60257;42.638;23.376;2022-12-07T06:20:10;77.25;63.00;37.50
72307;PMS5003;60257;42.638;23.376;2022-12-07T06:22:35;82.00;65.75;40.00
72307;PMS5003;60257;42.638;23.376;2022-12-07T06:25:01;74.50;59.25;38.25
72307;PMS5003;60257;42.638;23.376;2022-12-07T06:27:26;82.75;66.25;40.00
72307;PMS5003;60257;42.638;23.376;2022-12-07T06:29:52;72.75;59.00;38.50
72307;PMS5003;60257;42.638;23.376;2022-12-07T06:32:17;80.50;63.50;37.25
72307;PMS5003;60257;42.638;23.376;2022-12-07T06:34:43;79.75;64.50;39.25
72307;PMS5003;60257;42.638;23.376;2022-12-07T06:37:08;79.00;65.75;42.00
72307;PMS5003;60257;42.638;23.376;2022-12-07T06:39:34;76.25;61.00;36.50
72307;PMS5003;60257;42.638;23.376;2022-12-07T06:41:59;84.00;67.00;41.75
72307;PMS5003;60257;42.638;23.376;2022-12-07T06:44:25;74.75;62.50;40.75
72307;PMS5003;60257;42.638;23.376;2022-12-07T06:46:51;80.00;62.50;40.50
72307;PMS5003;60257;42.638;23.376;2022-12-07T06:49:17;82.00;64.50;40.00
72307;PMS5003;60257;42.638;23.376;2022-12-07T06:51:42;82.75;64.00;40.00
72307;PMS5003;60257;42.638;23.376;2022-12-07T06:54:09;65.25;52.25;27.00
72307;PMS5003;60257;42.638;23.376;2022-12-07T06:56:35;68.50;55.75;30.50
72307;PMS5003;60257;42.638;23.376;2022-12-07T06:59:01;80.50;65.00;39.75
72307;PMS5003;60257;42.638;23.376;2022-12-07T07:01:28;81.75;64.75;40.25
72307;PMS5003;60257;42.638;23.376;2022-12-07T07:03:54;77.75;61.00;38.25
72307;PMS5003;60257;42.638;23.376;2022-12-07T07:06:19;81.50;63.00;39.25
72307;PMS5003;60257;42.638;23.376;2022-12-07T07:08:45;78.50;59.25;37.50
72307;PMS5003;60257;42.638;23.376;2022-12-07T07:11:10;79.25;61.50;38.25
72307;PMS5003;60257;42.638;23.376;2022-12-07T07:13:37;78.25;62.50;38.00
72307;PMS5003;60257;42.638;23.376;2022-12-07T07:16:02;68.00;56.00;32.75
72307;PMS5003;60257;42.638;23.376;2022-12-07T07:18:28;82.75;64.75;40.00
72307;PMS5003;60257;42.638;23.376;2022-12-07T07:20:54;89.25;68.50;41.75
72307;PMS5003;60257;42.638;23.376;2022-12-07T07:23:20;95.50;78.75;48.00
72307;PMS5003;60257;42.638;23.376;2022-12-07T07:25:46;79.25;60.75;37.75
72307;PMS5003;60257;42.638;23.376;2022-12-07T07:28:13;76.00;62.25;36.00
72307;PMS5003;60257;42.638;23.376;2022-12-07T07:30:42;84.25;63.50;38.00
72307;PMS5003;60257;42.638;23.376;2022-12-07T07:33:07;84.00;66.50;40.25
72307;PMS5003;60257;42.638;23.376;2022-12-07T07:35:34;84.75;68.00;42.75
72307;PMS5003;60257;42.638;23.376;2022-12-07T07:38:00;84.50;66.50;40.25
72307;PMS5003;60257;42.638;23.376;2022-12-07T07:40:26;92.00;73.75;45.00
72307;PMS5003;60257;42.638;23.376;2022-12-07T07:42:53;80.00;62.50;35.50
72307;PMS5003;60257;42.638;23.376;2022-12-07T07:45:20;86.75;67.00;40.50
72307;PMS5003;60257;42.638;23.376;2022-12-07T07:47:47;81.75;62.00;39.00
72307;PMS5003;60257;42.638;23.376;2022-12-07T07:50:13;82.00;65.25;39.25
72307;PMS5003;60257;42.638;23.376;2022-12-07T07:52:39;81.25;61.00;39.00
72307;PMS5003;60257;42.638;23.376;2022-12-07T07:55:05;73.25;57.50;40.25
72307;PMS5003;60257;42.638;23.376;2022-12-07T07:57:32;83.25;65.75;42.00
72307;PMS5003;60257;42.638;23.376;2022-12-07T07:59:58;82.50;62.50;39.25
72307;PMS5003;60257;42.638;23.376;2022-12-07T08:02:23;82.00;65.00;39.50
72307;PMS5003;60257;42.638;23.376;2022-12-07T08:04:48;76.75;62.00;37.25
72307;PMS5003;60257;42.638;23.376;2022-12-07T08:07:14;83.25;66.75;42.25
72307;PMS5003;60257;42.638;23.376;2022-12-07T08:09:40;79.25;63.50;37.00
72307;PMS5003;60257;42.638;23.376;2022-12-07T08:12:06;68.75;57.00;36.00
72307;PMS5003;60257;42.638;23.376;2022-12-07T08:14:32;71.00;56.75;34.50
72307;PMS5003;60257;42.638;23.376;2022-12-07T08:16:59;81.25;63.75;39.00
72307;PMS5003;60257;42.638;23.376;2022-12-07T08:19:25;67.25;54.00;32.75
72307;PMS5003;60257;42.638;23.376;2022-12-07T08:21:50;64.75;52.50;30.75
72307;PMS5003;60257;42.638;23.376;2022-12-07T08:24:16;66.50;54.75;32.50
72307;PMS5003;60257;42.638;23.376;2022-12-07T08:26:42;63.75;50.75;32.00
72307;PMS5003;60257;42.638;23.376;2022-12-07T08:29:08;73.00;59.00;36.00
72307;PMS5003;60257;42.638;23.376;2022-12-07T08:31:33;69.25;57.75;36.00
72307;PMS5003;60257;42.638;23.376;2022-12-07T08:33:59;73.50;57.00;34.75
72307;PMS5003;60257;42.638;23.376;2022-12-07T08:36:24;68.25;55.25;31.75
72307;PMS5003;60257;42.638;23.376;2022-12-07T08:38:50;78.00;60.75;36.00
72307;PMS5003;60257;42.638;23.376;2022-12-07T08:41:15;76.50;59.75;35.75
72307;PMS5003;60257;42.638;23.376;2022-12-07T08:43:41;63.25;50.25;31.00
72307;PMS5003;60257;42.638;23.376;2022-12-07T08:48:56;60.75;50.25;29.00
72307;PMS5003;60257;42.638;23.376;2022-12-07T08:51:27;66.50;54.25;32.75
72307;PMS5003;60257;42.638;23.376;2022-12-07T08:53:53;71.00;57.00;34.00
72307;PMS5003;60257;42.638;23.376;2022-12-07T08:56:20;65.00;50.00;29.00
72307;PMS5003;60257;42.638;23.376;2022-12-07T08:58:46;70.00;56.25;33.00
72307;PMS5003;60257;42.638;23.376;2022-12-07T09:01:13;63.25;52.00;30.00
72307;PMS5003;60257;42.638;23.376;2022-12-07T09:03:38;53.75;45.00;25.25
72307;PMS5003;60257;42.638;23.376;2022-12-07T09:06:04;66.00;54.00;32.75
72307;PMS5003;60257;42.638;23.376;2022-12-07T09:08:32;58.00;49.75;32.75
72307;PMS5003;60257;42.638;23.376;2022-12-07T09:11:00;72.75;57.50;32.25
72307;PMS5003;60257;42.638;23.376;2022-12-07T09:13:26;67.75;54.25;33.00
72307;PMS5003;60257;42.638;23.376;2022-12-07T09:15:51;66.75;54.75;33.50
72307;PMS5003;60257;42.638;23.376;2022-12-07T09:18:17;67.75;53.75;33.25
72307;PMS5003;60257;42.638;23.376;2022-12-07T09:20:42;71.50;58.00;37.00
72307;PMS5003;60257;42.638;23.376;2022-12-07T09:23:08;68.00;56.00;32.75
72307;PMS5003;60257;42.638;23.376;2022-12-07T09:25:34;67.50;53.25;33.25
72307;PMS5003;60257;42.638;23.376;2022-12-07T09:28:00;62.00;48.75;32.00
72307;PMS5003;60257;42.638;23.376;2022-12-07T09:30:26;63.00;51.50;30.00
72307;PMS5003;60257;42.638;23.376;2022-12-07T09:32:53;74.50;57.00;34.75
72307;PMS5003;60257;42.638;23.376;2022-12-07T09:35:19;72.50;57.25;33.75
72307;PMS5003;60257;42.638;23.376;2022-12-07T09:37:45;72.50;57.75;34.25
72307;PMS5003;60257;42.638;23.376;2022-12-07T09:40:11;72.50;56.25;34.00
72307;PMS5003;60257;42.638;23.376;2022-12-07T09:42:41;72.50;60.50;35.00
72307;PMS5003;60257;42.638;23.376;2022-12-07T09:45:12;65.00;52.50;31.00
72307;PMS5003;60257;42.638;23.376;2022-12-07T09:47:40;63.50;53.75;32.25
72307;PMS5003;60257;42.638;23.376;2022-12-07T09:50:13;68.75;54.75;33.00
72307;PMS5003;60257;42.638;23.376;2022-12-07T09:52:42;67.50;53.50;33.25
72307;PMS5003;60257;42.638;23.376;2022-12-07T09:55:12;70.50;55.75;32.50
72307;PMS5003;60257;42.638;23.376;2022-12-07T09:57:38;61.50;50.25;29.50
72307;PMS5003;60257;42.638;23.376;2022-12-07T10:00:09;68.75;54.75;35.25
72307;PMS5003;60257;42.638;23.376;2022-12-07T10:02:41;63.50;51.75;31.00
72307;PMS5003;60257;42.638;23.376;2022-12-07T10:05:15;65.25;52.25;33.00
72307;PMS5003;60257;42.638;23.376;2022-12-07T10:07:45;68.25;55.00;33.00
72307;PMS5003;60257;42.638;23.376;2022-12-07T10:10:17;60.75;51.00;30.00
72307;PMS5003;60257;42.638;23.376;2022-12-07T10:12:56;60.50;51.00;31.50
72307;PMS5003;60257;42.638;23.376;2022-12-07T10:15:41;54.25;47.00;29.00
72307;PMS5003;60257;42.638;23.376;2022-12-07T10:21:03;63.00;51.75;30.50
72307;PMS5003;60257;42.638;23.376;2022-12-07T10:23:29;61.50;48.75;27.25
72307;PMS5003;60257;42.638;23.376;2022-12-07T10:25:55;61.00;49.00;29.00
72307;PMS5003;60257;42.638;23.376;2022-12-07T10:28:21;59.75;50.00;29.75
72307;PMS5003;60257;42.638;23.376;2022-12-07T10:30:52;56.25;47.75;30.75
72307;PMS5003;60257;42.638;23.376;2022-12-07T10:33:31;57.33;46.00;29.00
72307;PMS5003;60257;42.638;23.376;2022-12-07T10:35:57;58.00;49.75;30.00
72307;PMS5003;60257;42.638;23.376;2022-12-07T10:38:24;59.75;48.25;30.25
72307;PMS5003;60257;42.638;23.376;2022-12-07T10:41:07;61.75;51.00;30.25
72307;PMS5003;60257;42.638;23.376;2022-12-07T10:43:33;59.00;48.33;28.00
72307;PMS5003;60257;42.638;23.376;2022-12-07T11:00:35;57.00;45.50;29.00
72307;PMS5003;60257;42.638;23.376;2022-12-07T11:05:42;59.25;49.25;30.00
72307;PMS5003;60257;42.638;23.376;2022-12-07T11:11:12;57.67;45.67;29.00
72307;PMS5003;60257;42.638;23.376;2022-12-07T11:16:55;59.75;46.50;32.25
72307;PMS5003;60257;42.638;23.376;2022-12-07T11:30:19;58.00;47.00;28.25
72307;PMS5003;60257;42.638;23.376;2022-12-07T11:35:49;59.25;49.00;30.00
72307;PMS5003;60257;42.638;23.376;2022-12-07T11:38:31;56.00;46.25;28.50
72307;PMS5003;60257;42.638;23.376;2022-12-07T11:41:05;57.00;45.75;28.25
72307;PMS5003;60257;42.638;23.376;2022-12-07T12:06:36;59.00;48.75;28.00
72307;PMS5003;60257;42.638;23.376;2022-12-07T12:14:43;60.50;49.50;34.00
72307;PMS5003;60257;42.638;23.376;2022-12-07T12:22:43;64.25;50.75;32.00
72307;PMS5003;60257;42.638;23.376;2022-12-07T12:25:36;59.25;46.25;28.50
72307;PMS5003;60257;42.638;23.376;2022-12-07T12:28:04;62.00;49.00;28.00
72307;PMS5003;60257;42.638;23.376;2022-12-07T12:30:37;56.75;48.00;29.00
72307;PMS5003;60257;42.638;23.376;2022-12-07T12:33:27;56.75;46.50;27.50
72307;PMS5003;60257;42.638;23.376;2022-12-07T12:39:26;63.25;49.50;28.25
72307;PMS5003;60257;42.638;23.376;2022-12-07T12:51:42;61.00;50.75;31.00
72307;PMS5003;60257;42.638;23.376;2022-12-07T12:54:14;66.75;53.25;32.50
72307;PMS5003;60257;42.638;23.376;2022-12-07T12:56:52;64.50;52.25;32.00
72307;PMS5003;60257;42.638;23.376;2022-12-07T12:59:25;59.75;48.25;28.25
72307;PMS5003;60257;42.638;23.376;2022-12-07T13:15:37;59.25;48.75;30.75
72307;PMS5003;60257;42.638;23.376;2022-12-07T13:23:33;56.33;45.33;28.33
72307;PMS5003;60257;42.638;23.376;2022-12-07T13:31:16;56.33;43.00;23.67
72307;PMS5003;60257;42.638;23.376;2022-12-07T13:34:05;51.00;43.25;27.25
72307;PMS5003;60257;42.638;23.376;2022-12-07T13:37:08;53.33;45.00;26.33
72307;PMS5003;60257;42.638;23.376;2022-12-07T13:39:49;49.33;41.00;24.33
72307;PMS5003;60257;42.638;23.376;2022-12-07T13:42:22;55.50;46.75;27.75
72307;PMS5003;60257;42.638;23.376;2022-12-07T13:44:51;49.67;44.00;26.33
72307;PMS5003;60257;42.638;23.376;2022-12-07T13:49:51;45.00;41.67;26.00
72307;PMS5003;60257;42.638;23.376;2022-12-07T13:54:58;58.50;44.75;26.75
72307;PMS5003;60257;42.638;23.376;2022-12-07T13:57:38;51.33;43.67;26.67
72307;PMS5003;60257;42.638;23.376;2022-12-07T14:00:05;41.00;38.33;24.67
72307;PMS5003;60257;42.638;23.376;2022-12-07T14:02:54;52.50;44.50;27.50
72307;PMS5003;60257;42.638;23.376;2022-12-07T14:05:29;52.50;43.00;26.50
72307;PMS5003;60257;42.638;23.376;2022-12-07T14:07:59;54.00;43.00;26.00
72307;PMS5003;60257;42.638;23.376;2022-12-07T14:10:34;57.33;45.33;27.00
72307;PMS5003;60257;42.638;23.376;2022-12-07T14:13:02;50.33;41.67;23.67
72307;PMS5003;60257;42.638;23.376;2022-12-07T14:15:29;49.50;42.00;28.50
72307;PMS5003;60257;42.638;23.376;2022-12-07T14:17:58;53.00;46.00;27.00
72307;PMS5003;60257;42.638;23.376;2022-12-07T14:20:35;56.00;46.67;27.33
72307;PMS5003;60257;42.638;23.376;2022-12-07T14:23:02;56.25;44.75;26.00
72307;PMS5003;60257;42.638;23.376;2022-12-07T14:25:44;58.75;48.25;29.00
72307;PMS5003;60257;42.638;23.376;2022-12-07T14:28:24;57.50;47.00;27.50
72307;PMS5003;60257;42.638;23.376;2022-12-07T14:31:00;59.25;47.50;27.25
72307;PMS5003;60257;42.638;23.376;2022-12-07T14:33:27;57.25;45.25;27.00
72307;PMS5003;60257;42.638;23.376;2022-12-07T14:35:53;61.75;48.75;31.50
72307;PMS5003;60257;42.638;23.376;2022-12-07T14:38:23;58.00;47.75;28.00
72307;PMS5003;60257;42.638;23.376;2022-12-07T14:40:50;54.50;42.75;25.25
72307;PMS5003;60257;42.638;23.376;2022-12-07T14:43:17;55.00;45.00;27.50
72307;PMS5003;60257;42.638;23.376;2022-12-07T14:45:43;57.00;48.00;30.50
72307;PMS5003;60257;42.638;23.376;2022-12-07T14:48:13;54.50;45.25;27.25
72307;PMS5003;60257;42.638;23.376;2022-12-07T14:50:48;40.00;35.33;20.67
72307;PMS5003;60257;42.638;23.376;2022-12-07T14:53:17;50.75;43.25;26.00
72307;PMS5003;60257;42.638;23.376;2022-12-07T14:55:48;54.75;44.50;26.25
72307;PMS5003;60257;42.638;23.376;2022-12-07T14:58:14;58.25;47.75;26.25
72307;PMS5003;60257;42.638;23.376;2022-12-07T15:00:41;59.50;46.75;31.25
72307;PMS5003;60257;42.638;23.376;2022-12-07T15:03:07;77.00;59.75;35.75
72307;PMS5003;60257;42.638;23.376;2022-12-07T15:05:32;65.75;55.50;35.25
72307;PMS5003;60257;42.638;23.376;2022-12-07T15:07:58;60.25;51.25;32.75
72307;PMS5003;60257;42.638;23.376;2022-12-07T15:10:25;68.00;54.25;33.75
72307;PMS5003;60257;42.638;23.376;2022-12-07T15:12:55;64.00;48.25;29.00
72307;PMS5003;60257;42.638;23.376;2022-12-07T15:15:41;64.25;48.00;28.50
72307;PMS5003;60257;42.638;23.376;2022-12-07T15:18:06;62.25;52.00;32.50
72307;PMS5003;60257;42.638;23.376;2022-12-07T15:20:32;66.00;53.25;33.25
72307;PMS5003;60257;42.638;23.376;2022-12-07T15:22:58;57.75;47.50;26.25
72307;PMS5003;60257;42.638;23.376;2022-12-07T15:25:23;78.00;62.50;39.75
72307;PMS5003;60257;42.638;23.376;2022-12-07T15:27:49;65.75;53.25;34.00
72307;PMS5003;60257;42.638;23.376;2022-12-07T15:30:15;61.25;49.75;34.00
72307;PMS5003;60257;42.638;23.376;2022-12-07T15:32:40;76.25;59.75;38.00
72307;PMS5003;60257;42.638;23.376;2022-12-07T15:35:06;67.75;53.00;33.75
72307;PMS5003;60257;42.638;23.376;2022-12-07T15:37:31;69.75;55.00;35.75
72307;PMS5003;60257;42.638;23.376;2022-12-07T15:39:57;67.50;56.75;36.00
72307;PMS5003;60257;42.638;23.376;2022-12-07T15:42:22;85.75;67.25;42.00
72307;PMS5003;60257;42.638;23.376;2022-12-07T15:44:48;87.25;67.50;42.00
72307;PMS5003;60257;42.638;23.376;2022-12-07T15:47:29;83.25;64.75;40.00
72307;PMS5003;60257;42.638;23.376;2022-12-07T15:49:59;83.25;65.50;42.25
72307;PMS5003;60257;42.638;23.376;2022-12-07T15:52:25;77.50;62.00;38.00
72307;PMS5003;60257;42.638;23.376;2022-12-07T15:54:54;77.25;61.50;38.50
72307;PMS5003;60257;42.638;23.376;2022-12-07T15:57:19;77.75;60.25;36.25
72307;PMS5003;60257;42.638;23.376;2022-12-07T15:59:45;78.00;61.25;39.00
72307;PMS5003;60257;42.638;23.376;2022-12-07T16:02:10;79.00;61.00;37.75
72307;PMS5003;60257;42.638;23.376;2022-12-07T16:04:36;92.25;74.25;42.25
72307;PMS5003;60257;42.638;23.376;2022-12-07T16:07:01;79.00;63.00;41.00
72307;PMS5003;60257;42.638;23.376;2022-12-07T16:09:27;81.75;66.75;41.75